sensor_id;sensor_type;location;lat;lon;timestamp;pressure;altitude;pressure_sealevel;temperature;humidity
49877;BME280;35771;48.978;9.294;2022-10-16T00:02:21;98854.72;;;14.65;100.00
49877;BME280;35771;48.978;9.294;2022-10-16T00:04:49;98871.91;;;14.72;100.00
49877;BME280;35771;48.978;9.294;2022-10-16T00:07:15;98850.75;;;14.61;100.00
49877;BME280;35771;48.978;9.294;2022-10-16T00:09:42;98849.66;;;14.68;100.00
49877;BME280;35771;48.978;9.294;2022-10-16T00:12:09;98849.03;;;14.60;100.00
49877;BME280;35771;48.978;9.294;2022-10-16T00:14:35;98842.53;;;14.54;100.00
49877;BME280;35771;48.978;9.294;2022-10-16T00:17:02;98843.16;;;14.56;100.00
49877;BME280;35771;48.978;9.294;2022-10-16T00:19:28;98857.63;;;14.70;100.00
49877;BME280;35771;48.978;9.294;2022-10-16T00:21:56;98835.19;;;14.55;100.00
49877;BME280;35771;48.978;9.294;2022-10-16T00:24:23;98835.19;;;14.55;100.00
49877;BME280;35771;48.978;9.294;2022-10-16T00:26:50;98847.16;;;14.60;100.00
49877;BME280;35771;48.978;9.294;2022-10-16T00:29:17;98844.78;;;14.71;100.00
49877;BME280;35771;48.978;9.294;2022-10-16T00:31:43;98840.56;;;14.75;100.00
49877;BME280;35771;48.978;9.294;2022-10-16T00:34:10;98850.25;;;14.71;100.00
49877;BME280;35771;48.978;9.294;2022-10-16T00:36:37;98837.25;;;14.66;100.00
49877;BME280;35771;48.978;9.294;2022-10-16T00:39:05;98859.47;;;14.83;100.00
49877;BME280;35771;48.978;9.294;2022-10-16T00:41:32;98852.78;;;14.72;100.00
49877;BME280;35771;48.978;9.294;2022-10-16T00:44:00;98863.84;;;14.84;100.00
49877;BME280;35771;48.978;9.294;2022-10-16T00:46:28;98871.91;;;14.79;100.00
49877;BME280;35771;48.978;9.294;2022-10-16T00:48:59;98848.19;;;14.66;100.00
49877;BME280;35771;48.978;9.294;2022-10-16T00:51:31;98882.56;;;14.87;100.00
49877;BME280;35771;48.978;9.294;2022-10-16T00:53:59;98876.44;;;14.92;100.00
49877;BME280;35771;48.978;9.294;2022-10-16T00:56:27;98874.34;;;14.94;100.00
49877;BME280;35771;48.978;9.294;2022-10-16T00:58:54;98865.31;;;14.86;100.00
49877;BME280;35771;48.978;9.294;2022-10-16T01:01:21;98863.41;;;14.87;100.00
49877;BME280;35771;48.978;9.294;2022-10-16T01:03:47;98861.94;;;14.91;100.00
49877;BME280;35771;48.978;9.294;2022-10-16T01:06:22;98863.84;;;14.91;100.00
49877;BME280;35771;48.978;9.294;2022-10-16T01:09:00;98868.28;;;14.85;100.00
49877;BME280;35771;48.978;9.294;2022-10-16T01:11:34;98862.44;;;14.75;100.00
49877;BME280;35771;48.978;9.294;2022-10-16T01:14:11;98876.72;;;14.77;100.00
49877;BME280;35771;48.978;9.294;2022-10-16T01:16:45;98877.81;;;14.76;100.00
49877;BME280;35771;48.978;9.294;2022-10-16T01:19:20;98876.72;;;14.83;100.00
49877;BME280;35771;48.978;9.294;2022-10-16T01:21:53;98855.50;;;14.72;100.00
49877;BME280;35771;48.978;9.294;2022-10-16T01:24:27;98861.84;;;14.66;100.00
49877;BME280;35771;48.978;9.294;2022-10-16T01:27:07;98848.59;;;14.69;100.00
49877;BME280;35771;48.978;9.294;2022-10-16T01:29:39;98867.84;;;14.88;100.00
49877;BME280;35771;48.978;9.294;2022-10-16T01:32:11;98865.31;;;14.86;100.00
49877;BME280;35771;48.978;9.294;2022-10-16T01:34:47;98843.50;;;14.73;100.00
49877;BME280;35771;48.978;9.294;2022-10-16T01:37:22;98862.66;;;14.80;100.00
49877;BME280;35771;48.978;9.294;2022-10-16T01:39:55;98854.06;;;14.69;100.00
49877;BME280;35771;48.978;9.294;2022-10-16T01:42:29;98887.44;;;14.85;100.00
49877;BME280;35771;48.978;9.294;2022-10-16T01:44:59;98873.16;;;14.83;100.00
49877;BME280;35771;48.978;9.294;2022-10-16T01:47:30;98876.28;;;14.86;100.00
49877;BME280;35771;48.978;9.294;2022-10-16T01:49:58;98862.66;;;14.73;100.00
49877;BME280;35771;48.978;9.294;2022-10-16T01:52:28;98879.00;;;14.86;100.00
49877;BME280;35771;48.978;9.294;2022-10-16T01:54:57;98867.41;;;14.91;100.00
49877;BME280;35771;48.978;9.294;2022-10-16T01:57:28;98869.78;;;14.81;100.00
49877;BME280;35771;48.978;9.294;2022-10-16T02:00:00;98869.38;;;14.77;100.00
49877;BME280;35771;48.978;9.294;2022-10-16T02:02:28;98871.09;;;14.72;100.00
49877;BME280;35771;48.978;9.294;2022-10-16T02:04:59;98856.97;;;14.75;100.00
49877;BME280;35771;48.978;9.294;2022-10-16T02:07:28;98861.41;;;14.76;100.00
49877;BME280;35771;48.978;9.294;2022-10-16T02:09:54;98845.22;;;14.67;100.00
49877;BME280;35771;48.978;9.294;2022-10-16T02:12:27;98852.56;;;14.74;100.00
49877;BME280;35771;48.978;9.294;2022-10-16T02:14:55;98830.31;;;14.63;100.00
49877;BME280;35771;48.978;9.294;2022-10-16T02:17:22;98839.09;;;14.72;100.00
49877;BME280;35771;48.978;9.294;2022-10-16T02:19:50;98857.34;;;14.78;100.00
49877;BME280;35771;48.978;9.294;2022-10-16T02:22:22;98854.00;;;14.76;100.00
49877;BME280;35771;48.978;9.294;2022-10-16T02:24:55;98862.66;;;14.80;100.00
49877;BME280;35771;48.978;9.294;2022-10-16T02:27:29;98871.63;;;14.87;100.00
49877;BME280;35771;48.978;9.294;2022-10-16T02:30:02;98856.50;;;14.84;100.00
49877;BME280;35771;48.978;9.294;2022-10-16T02:32:33;98878.34;;;14.91;100.00
49877;BME280;35771;48.978;9.294;2022-10-16T02:35:01;98869.91;;;14.93;100.00
49877;BME280;35771;48.978;9.294;2022-10-16T02:37:28;98874.34;;;14.94;100.00
49877;BME280;35771;48.978;9.294;2022-10-16T02:39:57;98864.72;;;14.84;100.00
49877;BME280;35771;48.978;9.294;2022-10-16T02:42:29;98860.44;;;14.95;100.00
49877;BME280;35771;48.978;9.294;2022-10-16T02:44:59;98874.94;;;14.96;100.00
49877;BME280;35771;48.978;9.294;2022-10-16T02:47:25;98877.53;;;14.91;100.00
49877;BME280;35771;48.978;9.294;2022-10-16T02:49:52;98863.63;;;14.85;100.00
49877;BME280;35771;48.978;9.294;2022-10-16T02:52:18;98871.84;;;14.85;100.00
49877;BME280;35771;48.978;9.294;2022-10-16T02:54:45;98862.66;;;14.80;100.00
49877;BME280;35771;48.978;9.294;2022-10-16T02:57:11;98883.00;;;14.84;100.00
49877;BME280;35771;48.978;9.294;2022-10-16T02:59:39;98876.50;;;14.85;100.00
49877;BME280;35771;48.978;9.294;2022-10-16T03:02:06;98856.53;;;14.78;100.00
49877;BME280;35771;48.978;9.294;2022-10-16T03:04:32;98875.44;;;14.86;100.00
49877;BME280;35771;48.978;9.294;2022-10-16T03:06:59;98875.06;;;14.76;100.00
49877;BME280;35771;48.978;9.294;2022-10-16T03:09:25;98881.81;;;14.80;100.00
49877;BME280;35771;48.978;9.294;2022-10-16T03:11:52;98892.75;;;14.80;100.00
49877;BME280;35771;48.978;9.294;2022-10-16T03:14:18;98872.41;;;14.62;100.00
49877;BME280;35771;48.978;9.294;2022-10-16T03:16:46;98897.63;;;14.71;100.00
49877;BME280;35771;48.978;9.294;2022-10-16T03:19:13;98895.56;;;14.66;100.00
49877;BME280;35771;48.978;9.294;2022-10-16T03:21:40;98875.13;;;14.56;100.00
49877;BME280;35771;48.978;9.294;2022-10-16T03:24:06;98877.69;;;14.50;100.00
49877;BME280;35771;48.978;9.294;2022-10-16T03:26:33;98881.03;;;14.52;100.00
49877;BME280;35771;48.978;9.294;2022-10-16T03:28:59;98882.72;;;14.54;100.00
49877;BME280;35771;48.978;9.294;2022-10-16T03:31:27;98874.34;;;14.48;100.00
49877;BME280;35771;48.978;9.294;2022-10-16T03:33:55;98886.94;;;14.49;100.00
49877;BME280;35771;48.978;9.294;2022-10-16T03:36:22;98891.81;;;14.47;100.00
49877;BME280;35771;48.978;9.294;2022-10-16T03:38:48;98894.75;;;14.46;100.00
49877;BME280;35771;48.978;9.294;2022-10-16T03:41:15;98887.81;;;14.50;100.00
49877;BME280;35771;48.978;9.294;2022-10-16T03:43:42;98878.38;;;14.39;100.00
49877;BME280;35771;48.978;9.294;2022-10-16T03:46:08;98885.94;;;14.44;100.00
49877;BME280;35771;48.978;9.294;2022-10-16T03:48:35;98881.13;;;14.39;100.00
49877;BME280;35771;48.978;9.294;2022-10-16T03:51:03;98897.72;;;14.44;100.00
49877;BME280;35771;48.978;9.294;2022-10-16T03:53:29;98887.22;;;14.34;100.00
49877;BME280;35771;48.978;9.294;2022-10-16T03:55:56;98902.56;;;14.42;100.00
49877;BME280;35771;48.978;9.294;2022-10-16T03:58:23;98896.66;;;14.39;100.00
49877;BME280;35771;48.978;9.294;2022-10-16T04:00:50;98878.41;;;14.32;100.00
49877;BME280;35771;48.978;9.294;2022-10-16T04:03:16;98890.59;;;14.37;100.00
49877;BME280;35771;48.978;9.294;2022-10-16T04:05:44;98895.63;;;14.33;100.00
49877;BME280;35771;48.978;9.294;2022-10-16T04:08:12;98887.00;;;14.36;100.00
49877;BME280;35771;48.978;9.294;2022-10-16T04:10:38;98881.34;;;14.31;100.00
49877;BME280;35771;48.978;9.294;2022-10-16T04:13:05;98896.47;;;14.40;100.00
49877;BME280;35771;48.978;9.294;2022-10-16T04:15:31;98886.59;;;14.39;100.00
49877;BME280;35771;48.978;9.294;2022-10-16T04:17:58;98891.41;;;14.37;100.00
49877;BME280;35771;48.978;9.294;2022-10-16T04:20:24;98892.28;;;14.31;100.00
49877;BME280;35771;48.978;9.294;2022-10-16T04:22:51;98890.19;;;14.26;100.00
49877;BME280;35771;48.978;9.294;2022-10-16T04:25:19;98880.34;;;14.19;100.00
49877;BME280;35771;48.978;9.294;2022-10-16T04:27:45;98902.19;;;14.32;100.00
49877;BME280;35771;48.978;9.294;2022-10-16T04:30:12;98888.97;;;14.15;100.00
49877;BME280;35771;48.978;9.294;2022-10-16T04:32:39;98886.25;;;14.15;100.00
49877;BME280;35771;48.978;9.294;2022-10-16T04:35:06;98888.13;;;14.22;100.00
49877;BME280;35771;48.978;9.294;2022-10-16T04:37:33;98900.06;;;14.41;100.00
49877;BME280;35771;48.978;9.294;2022-10-16T04:40:00;98898.34;;;14.40;100.00
49877;BME280;35771;48.978;9.294;2022-10-16T04:42:27;98916.47;;;14.41;100.00
49877;BME280;35771;48.978;9.294;2022-10-16T04:44:54;98903.69;;;14.21;100.00
49877;BME280;35771;48.978;9.294;2022-10-16T04:47:21;98924.28;;;14.30;100.00
49877;BME280;35771;48.978;9.294;2022-10-16T04:49:47;98931.59;;;14.37;100.00
49877;BME280;35771;48.978;9.294;2022-10-16T04:52:14;98923.41;;;14.30;100.00
49877;BME280;35771;48.978;9.294;2022-10-16T04:54:41;98920.31;;;14.20;100.00
49877;BME280;35771;48.978;9.294;2022-10-16T04:57:09;98919.03;;;14.22;100.00
49877;BME280;35771;48.978;9.294;2022-10-16T04:59:37;98937.53;;;14.13;100.00
49877;BME280;35771;48.978;9.294;2022-10-16T05:02:04;98923.03;;;14.13;100.00
49877;BME280;35771;48.978;9.294;2022-10-16T05:04:31;98928.09;;;14.03;100.00
49877;BME280;35771;48.978;9.294;2022-10-16T05:06:57;98940.13;;;14.02;100.00
49877;BME280;35771;48.978;9.294;2022-10-16T05:09:24;98947.47;;;14.08;100.00
49877;BME280;35771;48.978;9.294;2022-10-16T05:11:50;98939.47;;;13.99;100.00
49877;BME280;35771;48.978;9.294;2022-10-16T05:14:17;98942.22;;;14.06;100.00
49877;BME280;35771;48.978;9.294;2022-10-16T05:16:45;98929.78;;;13.97;100.00
49877;BME280;35771;48.978;9.294;2022-10-16T05:19:13;98927.72;;;13.86;100.00
49877;BME280;35771;48.978;9.294;2022-10-16T05:21:39;98912.81;;;13.75;100.00
49877;BME280;35771;48.978;9.294;2022-10-16T05:24:06;98938.66;;;13.86;100.00
49877;BME280;35771;48.978;9.294;2022-10-16T05:26:32;98919.94;;;13.76;100.00
49877;BME280;35771;48.978;9.294;2022-10-16T05:28:59;98924.16;;;13.85;100.00
49877;BME280;35771;48.978;9.294;2022-10-16T05:31:26;98920.16;;;13.74;100.00
49877;BME280;35771;48.978;9.294;2022-10-16T05:33:58;98915.34;;;13.76;100.00
49877;BME280;35771;48.978;9.294;2022-10-16T05:36:24;98936.75;;;13.86;100.00
49877;BME280;35771;48.978;9.294;2022-10-16T05:38:51;98939.28;;;13.88;100.00
49877;BME280;35771;48.978;9.294;2022-10-16T05:41:18;98930.44;;;13.86;100.00
49877;BME280;35771;48.978;9.294;2022-10-16T05:43:46;98951.06;;;13.88;100.00
49877;BME280;35771;48.978;9.294;2022-10-16T05:46:14;98934.88;;;13.87;100.00
49877;BME280;35771;48.978;9.294;2022-10-16T05:48:40;98953.97;;;13.93;100.00
49877;BME280;35771;48.978;9.294;2022-10-16T05:51:12;98944.94;;;13.86;100.00
49877;BME280;35771;48.978;9.294;2022-10-16T05:53:39;98944.75;;;13.81;100.00
49877;BME280;35771;48.978;9.294;2022-10-16T05:56:08;98935.50;;;13.75;100.00
49877;BME280;35771;48.978;9.294;2022-10-16T05:58:37;98936.13;;;13.71;100.00
49877;BME280;35771;48.978;9.294;2022-10-16T06:01:07;98936.34;;;13.69;100.00
49877;BME280;35771;48.978;9.294;2022-10-16T06:03:35;98963.66;;;13.83;100.00
49877;BME280;35771;48.978;9.294;2022-10-16T06:06:09;98969.34;;;13.81;100.00
49877;BME280;35771;48.978;9.294;2022-10-16T06:08:36;98942.44;;;13.65;100.00
49877;BME280;35771;48.978;9.294;2022-10-16T06:11:03;98967.66;;;13.73;100.00
49877;BME280;35771;48.978;9.294;2022-10-16T06:13:30;98979.44;;;13.80;100.00
49877;BME280;35771;48.978;9.294;2022-10-16T06:15:57;98981.75;;;13.84;100.00
49877;BME280;35771;48.978;9.294;2022-10-16T06:18:24;98963.66;;;13.69;100.00
49877;BME280;35771;48.978;9.294;2022-10-16T06:20:51;98966.19;;;13.71;100.00
49877;BME280;35771;48.978;9.294;2022-10-16T06:23:19;98970.38;;;13.80;100.00
49877;BME280;35771;48.978;9.294;2022-10-16T06:25:46;98967.03;;;13.78;100.00
49877;BME280;35771;48.978;9.294;2022-10-16T06:28:13;98959.03;;;13.76;100.00
49877;BME280;35771;48.978;9.294;2022-10-16T06:30:40;98973.75;;;13.82;100.00
49877;BME280;35771;48.978;9.294;2022-10-16T06:33:08;98970.38;;;13.80;100.00
49877;BME280;35771;48.978;9.294;2022-10-16T06:35:34;98959.47;;;14.00;100.00
49877;BME280;35771;48.978;9.294;2022-10-16T06:38:01;98956.09;;;14.05;100.00
49877;BME280;35771;48.978;9.294;2022-10-16T06:40:29;98973.06;;;14.13;100.00
49877;BME280;35771;48.978;9.294;2022-10-16T06:42:55;98975.00;;;14.20;100.00
49877;BME280;35771;48.978;9.294;2022-10-16T06:45:22;98974.34;;;14.18;100.00
49877;BME280;35771;48.978;9.294;2022-10-16T06:47:49;98976.88;;;14.26;100.00
49877;BME280;35771;48.978;9.294;2022-10-16T06:50:15;98977.25;;;14.29;100.00
49877;BME280;35771;48.978;9.294;2022-10-16T06:52:42;98982.69;;;14.49;100.00
49877;BME280;35771;48.978;9.294;2022-10-16T06:55:08;98993.84;;;14.55;100.00
49877;BME280;35771;48.978;9.294;2022-10-16T06:57:36;98982.25;;;14.52;100.00
49877;BME280;35771;48.978;9.294;2022-10-16T07:00:03;99011.91;;;14.76;100.00
49877;BME280;35771;48.978;9.294;2022-10-16T07:02:30;99022.41;;;14.79;100.00
49877;BME280;35771;48.978;9.294;2022-10-16T07:04:57;99025.53;;;14.89;100.00
49877;BME280;35771;48.978;9.294;2022-10-16T07:07:23;99018.59;;;14.86;100.00
49877;BME280;35771;48.978;9.294;2022-10-16T07:09:51;99035.78;;;15.00;100.00
49877;BME280;35771;48.978;9.294;2022-10-16T07:12:18;99036.16;;;15.11;100.00
49877;BME280;35771;48.978;9.294;2022-10-16T07:14:46;99023.97;;;15.07;100.00
49877;BME280;35771;48.978;9.294;2022-10-16T07:17:12;99011.81;;;14.96;100.00
49877;BME280;35771;48.978;9.294;2022-10-16T07:19:39;99035.56;;;15.09;100.00
49877;BME280;35771;48.978;9.294;2022-10-16T07:22:05;99039.97;;;15.10;100.00
49877;BME280;35771;48.978;9.294;2022-10-16T07:24:32;99028.00;;;14.97;100.00
49877;BME280;35771;48.978;9.294;2022-10-16T07:26:58;99037.31;;;14.90;100.00
49877;BME280;35771;48.978;9.294;2022-10-16T07:29:25;99056.00;;;14.99;100.00
49877;BME280;35771;48.978;9.294;2022-10-16T07:31:53;99035.22;;;14.85;100.00
49877;BME280;35771;48.978;9.294;2022-10-16T07:34:20;99046.13;;;14.92;100.00
49877;BME280;35771;48.978;9.294;2022-10-16T07:36:48;99056.22;;;14.98;100.00
49877;BME280;35771;48.978;9.294;2022-10-16T07:39:16;99053.69;;;14.96;100.00
49877;BME280;35771;48.978;9.294;2022-10-16T07:41:42;99041.53;;;14.85;100.00
49877;BME280;35771;48.978;9.294;2022-10-16T07:44:09;99060.03;;;14.97;100.00
49877;BME280;35771;48.978;9.294;2022-10-16T07:46:35;99041.31;;;14.87;100.00
49877;BME280;35771;48.978;9.294;2022-10-16T07:49:03;99061.06;;;15.02;100.00
49877;BME280;35771;48.978;9.294;2022-10-16T07:51:30;99059.59;;;15.00;100.00
49877;BME280;35771;48.978;9.294;2022-10-16T07:53:57;99067.19;;;14.91;100.00
49877;BME280;35771;48.978;9.294;2022-10-16T07:56:24;99067.19;;;14.91;100.00
49877;BME280;35771;48.978;9.294;2022-10-16T07:58:51;99070.34;;;14.95;100.00
49877;BME280;35771;48.978;9.294;2022-10-16T08:01:18;99063.41;;;14.92;100.00
49877;BME280;35771;48.978;9.294;2022-10-16T08:03:46;99082.09;;;15.09;100.00
49877;BME280;35771;48.978;9.294;2022-10-16T08:06:14;99073.63;;;15.17;100.00
49877;BME280;35771;48.978;9.294;2022-10-16T08:08:41;99072.59;;;15.11;100.00
49877;BME280;35771;48.978;9.294;2022-10-16T08:11:08;99085.13;;;15.32;100.00
49877;BME280;35771;48.978;9.294;2022-10-16T08:13:35;99083.00;;;15.41;100.00
49877;BME280;35771;48.978;9.294;2022-10-16T08:16:02;99082.75;;;15.49;100.00
49877;BME280;35771;48.978;9.294;2022-10-16T08:18:33;99076.56;;;15.61;100.00
49877;BME280;35771;48.978;9.294;2022-10-16T08:21:01;99093.78;;;15.81;100.00
49877;BME280;35771;48.978;9.294;2022-10-16T08:23:29;99088.19;;;15.95;100.00
49877;BME280;35771;48.978;9.294;2022-10-16T08:26:01;99090.78;;;16.15;100.00
49877;BME280;35771;48.978;9.294;2022-10-16T08:28:28;99094.13;;;16.42;100.00
49877;BME280;35771;48.978;9.294;2022-10-16T08:30:55;99094.47;;;16.52;100.00
49877;BME280;35771;48.978;9.294;2022-10-16T08:33:22;99097.69;;;16.68;100.00
49877;BME280;35771;48.978;9.294;2022-10-16T08:35:54;99099.94;;;16.77;100.00
49877;BME280;35771;48.978;9.294;2022-10-16T08:38:21;99109.50;;;16.93;100.00
49877;BME280;35771;48.978;9.294;2022-10-16T08:40:49;99100.13;;;17.20;100.00
49877;BME280;35771;48.978;9.294;2022-10-16T08:43:28;99104.00;;;17.30;100.00
49877;BME280;35771;48.978;9.294;2022-10-16T08:46:18;99119.28;;;17.45;100.00
49877;BME280;35771;48.978;9.294;2022-10-16T08:48:50;99128.13;;;17.47;100.00
49877;BME280;35771;48.978;9.294;2022-10-16T08:51:20;99127.31;;;17.58;100.00
49877;BME280;35771;48.978;9.294;2022-10-16T08:53:52;99115.59;;;17.51;100.00
49877;BME280;35771;48.978;9.294;2022-10-16T08:56:22;99114.84;;;17.44;100.00
49877;BME280;35771;48.978;9.294;2022-10-16T08:58:49;99094.78;;;17.43;100.00
49877;BME280;35771;48.978;9.294;2022-10-16T09:01:19;99127.53;;;17.45;100.00
49877;BME280;35771;48.978;9.294;2022-10-16T09:04:05;99096.75;;;17.36;100.00
49877;BME280;35771;48.978;9.294;2022-10-16T09:06:44;99121.09;;;17.32;100.00
49877;BME280;35771;48.978;9.294;2022-10-16T09:09:29;99118.50;;;17.38;100.00
49877;BME280;35771;48.978;9.294;2022-10-16T09:12:09;99118.03;;;17.22;100.00
49877;BME280;35771;48.978;9.294;2022-10-16T09:14:50;99114.69;;;17.20;100.00
49877;BME280;35771;48.978;9.294;2022-10-16T09:17:26;99131.13;;;17.27;100.00
49877;BME280;35771;48.978;9.294;2022-10-16T09:20:00;99129.03;;;17.22;100.00
49877;BME280;35771;48.978;9.294;2022-10-16T09:22:31;99112.03;;;17.13;100.00
49877;BME280;35771;48.978;9.294;2022-10-16T09:25:00;99123.94;;;17.26;100.00
49877;BME280;35771;48.978;9.294;2022-10-16T09:27:42;99145.31;;;17.42;100.00
49877;BME280;35771;48.978;9.294;2022-10-16T09:30:12;99130.75;;;17.54;100.00
49877;BME280;35771;48.978;9.294;2022-10-16T09:32:40;99132.00;;;17.58;100.00
49877;BME280;35771;48.978;9.294;2022-10-16T09:35:14;99137.13;;;17.84;100.00
49877;BME280;35771;48.978;9.294;2022-10-16T09:37:42;99130.09;;;17.89;100.00
49877;BME280;35771;48.978;9.294;2022-10-16T09:40:12;99158.69;;;18.18;100.00
49877;BME280;35771;48.978;9.294;2022-10-16T09:42:40;99162.41;;;18.24;100.00
49877;BME280;35771;48.978;9.294;2022-10-16T09:45:20;99171.41;;;18.31;100.00
49877;BME280;35771;48.978;9.294;2022-10-16T09:47:47;99138.19;;;18.14;100.00
49877;BME280;35771;48.978;9.294;2022-10-16T09:50:22;99150.56;;;18.35;100.00
49877;BME280;35771;48.978;9.294;2022-10-16T09:52:49;99155.94;;;18.18;100.00
49877;BME280;35771;48.978;9.294;2022-10-16T09:55:17;99147.31;;;18.14;100.00
49877;BME280;35771;48.978;9.294;2022-10-16T09:57:52;99177.50;;;18.33;100.00
49877;BME280;35771;48.978;9.294;2022-10-16T10:00:21;99166.88;;;18.48;100.00
49877;BME280;35771;48.978;9.294;2022-10-16T10:02:48;99162.84;;;18.63;100.00
49877;BME280;35771;48.978;9.294;2022-10-16T10:05:20;99158.66;;;18.72;100.00
49877;BME280;35771;48.978;9.294;2022-10-16T10:07:54;99160.22;;;18.80;100.00
49877;BME280;35771;48.978;9.294;2022-10-16T10:10:23;99173.88;;;18.98;97.46
49877;BME280;35771;48.978;9.294;2022-10-16T10:12:53;99173.88;;;18.98;99.12
49877;BME280;35771;48.978;9.294;2022-10-16T10:15:20;99177.13;;;18.95;96.92
49877;BME280;35771;48.978;9.294;2022-10-16T10:17:51;99170.41;;;18.79;98.67
49877;BME280;35771;48.978;9.294;2022-10-16T10:20:26;99201.22;;;18.88;100.00
49877;BME280;35771;48.978;9.294;2022-10-16T10:22:54;99184.06;;;18.86;100.00
49877;BME280;35771;48.978;9.294;2022-10-16T10:25:39;99171.84;;;18.93;97.28
49877;BME280;35771;48.978;9.294;2022-10-16T10:28:20;99183.47;;;19.19;98.52
49877;BME280;35771;48.978;9.294;2022-10-16T10:30:56;99182.03;;;19.28;96.43
49877;BME280;35771;48.978;9.294;2022-10-16T10:33:30;99168.13;;;19.23;95.74
49877;BME280;35771;48.978;9.294;2022-10-16T10:36:06;99177.94;;;19.31;95.16
49877;BME280;35771;48.978;9.294;2022-10-16T10:38:41;99182.84;;;19.41;90.14
49877;BME280;35771;48.978;9.294;2022-10-16T10:44:07;99192.59;;;19.84;91.69
49877;BME280;35771;48.978;9.294;2022-10-16T10:46:41;99185.38;;;19.95;93.33
49877;BME280;35771;48.978;9.294;2022-10-16T10:49:19;99175.09;;;19.90;88.46
49877;BME280;35771;48.978;9.294;2022-10-16T10:51:54;99174.84;;;19.92;89.07
49877;BME280;35771;48.978;9.294;2022-10-16T10:54:29;99185.34;;;20.07;87.64
49877;BME280;35771;48.978;9.294;2022-10-16T10:57:02;99188.66;;;20.09;86.11
49877;BME280;35771;48.978;9.294;2022-10-16T10:59:39;99193.19;;;20.15;86.21
49877;BME280;35771;48.978;9.294;2022-10-16T11:02:15;99173.09;;;20.03;87.32
49877;BME280;35771;48.978;9.294;2022-10-16T11:04:58;99167.19;;;20.11;88.45
49877;BME280;35771;48.978;9.294;2022-10-16T11:07:30;99186.88;;;20.31;88.84
49877;BME280;35771;48.978;9.294;2022-10-16T11:10:03;99181.69;;;20.35;87.89
49877;BME280;35771;48.978;9.294;2022-10-16T11:15:10;99174.69;;;20.61;81.93
49877;BME280;35771;48.978;9.294;2022-10-16T11:17:40;99158.63;;;20.58;83.24
49877;BME280;35771;48.978;9.294;2022-10-16T11:20:14;99164.97;;;20.59;79.58
49877;BME280;35771;48.978;9.294;2022-10-16T11:22:47;99182.25;;;20.83;81.89
49877;BME280;35771;48.978;9.294;2022-10-16T11:25:18;99173.47;;;20.86;83.69
49877;BME280;35771;48.978;9.294;2022-10-16T11:27:49;99159.78;;;20.62;81.54
49877;BME280;35771;48.978;9.294;2022-10-16T11:30:22;99160.16;;;20.66;81.56
49877;BME280;35771;48.978;9.294;2022-10-16T11:32:54;99162.69;;;20.67;77.27
49877;BME280;35771;48.978;9.294;2022-10-16T11:35:39;99150.78;;;20.67;78.30
49877;BME280;35771;48.978;9.294;2022-10-16T11:38:12;99161.16;;;20.77;78.99
49877;BME280;35771;48.978;9.294;2022-10-16T11:40:43;99167.69;;;20.71;79.09
49877;BME280;35771;48.978;9.294;2022-10-16T11:43:15;99157.97;;;20.68;78.13
49877;BME280;35771;48.978;9.294;2022-10-16T11:45:47;99161.91;;;20.72;77.43
49877;BME280;35771;48.978;9.294;2022-10-16T11:48:23;99178.25;;;20.74;77.61
49877;BME280;35771;48.978;9.294;2022-10-16T11:50:53;99158.72;;;20.80;80.37
49877;BME280;35771;48.978;9.294;2022-10-16T11:53:26;99165.66;;;21.00;76.70
49877;BME280;35771;48.978;9.294;2022-10-16T11:55:54;99162.06;;;20.99;73.43
49877;BME280;35771;48.978;9.294;2022-10-16T11:58:25;99169.44;;;21.11;73.69
49877;BME280;35771;48.978;9.294;2022-10-16T12:00:59;99175.31;;;21.36;72.81
49877;BME280;35771;48.978;9.294;2022-10-16T12:03:35;99172.50;;;21.53;71.94
49877;BME280;35771;48.978;9.294;2022-10-16T12:06:14;99174.13;;;21.71;70.27
49877;BME280;35771;48.978;9.294;2022-10-16T12:08:45;99175.03;;;21.77;69.80
49877;BME280;35771;48.978;9.294;2022-10-16T12:11:23;99157.84;;;21.75;67.79
49877;BME280;35771;48.978;9.294;2022-10-16T12:13:50;99155.88;;;21.98;69.59
49877;BME280;35771;48.978;9.294;2022-10-16T12:16:23;99155.59;;;22.26;67.26
49877;BME280;35771;48.978;9.294;2022-10-16T12:19:09;99161.81;;;22.34;64.98
49877;BME280;35771;48.978;9.294;2022-10-16T12:21:37;99169.41;;;22.21;65.58
49877;BME280;35771;48.978;9.294;2022-10-16T12:24:04;99160.44;;;22.36;65.51
49877;BME280;35771;48.978;9.294;2022-10-16T12:26:33;99161.38;;;22.47;67.46
49877;BME280;35771;48.978;9.294;2022-10-16T12:29:13;99154.38;;;22.39;64.51
49877;BME280;35771;48.978;9.294;2022-10-16T12:31:45;99164.44;;;22.23;66.82
49877;BME280;35771;48.978;9.294;2022-10-16T12:34:21;99163.84;;;22.16;67.43
49877;BME280;35771;48.978;9.294;2022-10-16T12:36:49;99172.56;;;22.30;66.22
49877;BME280;35771;48.978;9.294;2022-10-16T12:39:21;99152.94;;;22.32;66.22
49877;BME280;35771;48.978;9.294;2022-10-16T12:42:00;99149.34;;;22.31;67.51
49877;BME280;35771;48.978;9.294;2022-10-16T12:44:32;99142.63;;;22.27;64.48
49877;BME280;35771;48.978;9.294;2022-10-16T12:47:00;99149.22;;;22.21;65.46
49877;BME280;35771;48.978;9.294;2022-10-16T12:49:34;99131.75;;;21.93;67.69
49877;BME280;35771;48.978;9.294;2022-10-16T12:52:02;99142.88;;;21.98;66.10
49877;BME280;35771;48.978;9.294;2022-10-16T12:54:31;99156.22;;;22.01;67.48
49877;BME280;35771;48.978;9.294;2022-10-16T12:57:13;99151.44;;;21.69;66.94
49877;BME280;35771;48.978;9.294;2022-10-16T12:59:49;99142.88;;;21.71;64.82
49877;BME280;35771;48.978;9.294;2022-10-16T13:02:51;99165.28;;;21.97;63.53
49877;BME280;35771;48.978;9.294;2022-10-16T13:05:30;99158.63;;;22.25;61.79
49877;BME280;35771;48.978;9.294;2022-10-16T13:08:11;99159.50;;;22.53;61.84
49877;BME280;35771;48.978;9.294;2022-10-16T13:10:47;99169.28;;;22.66;64.81
49877;BME280;35771;48.978;9.294;2022-10-16T13:13:40;99161.44;;;22.52;63.53